Pagrindinis puslapis
METAR-TAF:

METAR-TAF

Oro uostai :

Grand Rapids, Mičiganas, Jungtinės Amerikos Valstijos

platuma: 42-52-51N, ilguma: 085-31-22W, Aukštis: 242 m

Dabartinis oras

Ataskaita buvo paskelbta 1 valandą ir 6 minutes, ne 20:53 UTC
Vėjas 13 kt iš Šiaurės Vakarų su gūsio iki 22 kt
Temperatūra 18°C
Drėgmė 42%
Slėgis 1021 hPa
Matomumas: 16.1 km
Išsisklaidę debesys ne aukštis 5500 ft

METAR: KGRR 302053Z 32013G22KT 10SM SCT055 18/05 A3015 RMK AO2 SLP209 T01830050 53004 $

Laikas: 17:59 (21:59 UTC)

Prognozė

Ataskaita buvo paskelbta 4 valandos ir 19 minutes, ne 17:40 UTC
Prognozė galioja nuo 30 metu 18 UTC su 31 metu 18 UTC
Vėjas 12 kt iš Šiaurės Vakarų su gūsio iki 20 kt
Matomumas: 10 km
Su prošvaistėmis ne aukštis 3500 ft
Nuo 31 metu 0100 UTC
Vėjas 6 kt iš Šiaurės
Matomumas: 10 km
Giedras dangus
Nuo 31 metu 1500 UTC
Vėjas 11 kt iš Šiaurės/Šiaurės Vakarų su gūsio iki 19 kt
Matomumas: 10 km
Giedras dangus

TAF: KGRR 301740Z 3018/3118 31012G20KT P6SM BKN035 FM310100 01006KT P6SM SKC FM311500 34011G19KT P6SM SKC

Orai ataskaitas ir orų prognozės (METAR, TAF).

turimą stotys yra geltonos ir raudonos taškus žemėlapyje.

Perkelti pele per norėdami pamatyti stoties vardą.

Tada spustelėkite, norėdami matyti oro stebėjimo ir prognozės.

Norėdami pakeisti žemėlapį: spustelėkite ant žalios mygtukų su juodo kryžiaus žemyn,; žalią mygtuką su brūkšneliu, jei norite nutolinti; arba žalių rodyklių gretimoms žemėlapius.


METAR-TAF: